Sti Memphis — V7IX9 — position and weather

sailwx.info

Track history (hours):
 
Tides and Currents Weather Stations Pressure Air Temp Water Temp Dewpoint Dewpoint Depression Visibility Wind Speed Wind Dir Waves Ship Positions

Sti Memphis

Last reported at 2017-Dec-31 20:09 UTC. Time now 2018-Jan-20 19:25 UTC.
Position N 37°31' W 125°15'.
Warning: this ship's position is 19 days out of date.

Length 183 m; draft 11 m.

Type: Tanker. MMSI: 538006010.

Date/timePositionNaut miles runAvg speedWind from/ knotsBaromVisibWave heightAir tempDewpointWater temp
2017-Dec-31 20:09N 37°31' W 125°15'212.7
2017-Dec-31 20:00N 37°31' W 125°13'2012.8
2017-Dec-31 18:25N 37°31' W 124°47'512.8
2017-Dec-31 18:00N 37°32' W 124°40'612.7
2017-Dec-31 17:30N 37°32' W 124°32'612.7
2017-Dec-31 17:00N 37°32' W 124°24'612.6
2017-Dec-31 16:30N 37°32' W 124°16'612.6
2017-Dec-31 16:00N 37°33' W 124°09'612.9
2017-Dec-31 15:30N 37°33' W 124°00'612.5
2017-Dec-31 15:00N 37°33' W 123°53'612.7
2017-Dec-31 14:30N 37°33' W 123°45'713.1
2017-Dec-31 13:58N 37°33' W 123°36'713.3
2017-Dec-31 13:27N 37°33' W 123°27'613.0
2017-Dec-31 13:00N 37°34' W 123°20'713.1
2017-Dec-31 12:30N 37°34' W 123°11'612.5
2017-Dec-31 12:00N 37°34' W 123°04'612.5
2017-Dec-31 11:30N 37°38' W 122°57'612.6
2017-Dec-31 11:00N 37°41' W 122°50'612.4
2017-Dec-31 10:30N 37°45' W 122°44'5 9.6
2017-Dec-31 10:00N 37°46' W 122°38'611.7
2017-Dec-31 09:30N 37°48' W 122°31'510.6
2017-Dec-31 09:00N 37°51' W 122°25'4 7.5
2017-Dec-31 08:30N 37°54' W 122°27'4 7.3
2017-Dec-31 08:00N 37°58' W 122°27'4 8.6
2017-Dec-31 07:30N 38°01' W 122°23'4 7.3
2017-Dec-31 07:00N 38°03' W 122°19'3 6.3
2017-Dec-31 06:30N 38°04' W 122°15'3 6.3
2017-Dec-31 06:00N 38°03' W 122°11'  
2017-Dec-27 05:34N 38°02' W 122°08'0 0.8
2017-Dec-27 05:30N 38°02' W 122°08'2 4.0
2017-Dec-27 04:59N 38°03' W 122°10'510.2
2017-Dec-27 04:30N 38°04' W 122°17'612.0
2017-Dec-27 03:59N 38°01' W 122°24'611.3
2017-Dec-27 03:30N 37°56' W 122°27'510.6
2017-Dec-27 03:00N 37°51' W 122°24'510.7
2017-Dec-27 02:30N 37°46' W 122°21'4 8.0
2017-Dec-27 02:01N 37°43' W 122°20'0 0.2
2017-Dec-27 01:30N 37°42' W 122°20'0 0.0
2017-Dec-27 01:00N 37°42' W 122°20'0 0.0
2017-Dec-27 00:30N 37°42' W 122°20'0 0.0
2017-Dec-27 00:00N 37°42' W 122°20'0 0.0
2017-Dec-26 23:30N 37°42' W 122°20'0 0.0
2017-Dec-26 23:00N 37°42' W 122°20'0 0.0
2017-Dec-26 22:30N 37°42' W 122°20'0 0.0
2017-Dec-26 22:00N 37°42' W 122°20'0 0.1
2017-Dec-26 21:30N 37°42' W 122°20'0 0.1
2017-Dec-26 21:00N 37°42' W 122°20'0 0.2
2017-Dec-26 20:30N 37°43' W 122°20'0 0.1
2017-Dec-26 20:00N 37°43' W 122°20'0 0.0
2017-Dec-26 19:30N 37°43' W 122°20'0 0.0
2017-Dec-26 19:00N 37°43' W 122°20'0 0.0
2017-Dec-26 18:30N 37°43' W 122°20'0 0.0
2017-Dec-26 18:00N 37°43' W 122°20'0 0.0
2017-Dec-26 17:30N 37°43' W 122°20'0 0.0
2017-Dec-26 17:00N 37°43' W 122°20'0 0.0
2017-Dec-26 16:30N 37°43' W 122°20'0 0.0
2017-Dec-26 16:00N 37°43' W 122°20'0 0.2
2017-Dec-26 15:30N 37°43' W 122°20'0 0.2
2017-Dec-26 14:57N 37°42' W 122°20'0 0.0
2017-Dec-26 14:30N 37°42' W 122°20'0 0.0
2017-Dec-26 14:00N 37°42' W 122°20'0 0.0
2017-Dec-26 13:30N 37°42' W 122°20'0 0.0
2017-Dec-26 13:00N 37°42' W 122°20'0 0.1
2017-Dec-26 12:30N 37°42' W 122°20'0 0.1
2017-Dec-26 12:00N 37°42' W 122°20'0 0.0
2017-Dec-26 11:30N 37°42' W 122°20'0 0.0
2017-Dec-26 11:00N 37°42' W 122°20'0 0.0
2017-Dec-26 10:30N 37°42' W 122°20'0 0.0
2017-Dec-26 10:00N 37°42' W 122°20'0 0.0
2017-Dec-26 09:30N 37°42' W 122°20'0 0.0
2017-Dec-26 09:00N 37°42' W 122°20'0 0.1
2017-Dec-26 08:30N 37°42' W 122°20'1 2.4
2017-Dec-26 08:01N 37°43' W 122°21'4 8.0
2017-Dec-26 07:31N 37°47' W 122°22'5 9.7
2017-Dec-26 07:01N 37°49' W 122°28'510.5
2017-Dec-26 06:30N 37°47' W 122°34'611.1
2017-Dec-26 06:00N 37°45' W 122°41'4 8.8
2017-Dec-26 05:31N 37°42' W 122°45'510.2
2017-Dec-26 05:00N 37°39' W 122°50'611.3
2017-Dec-26 04:30N 37°36' W 122°56'612.3
2017-Dec-26 04:00N 37°32' W 123°02'612.7
2017-Dec-26 03:30N 37°28' W 123°09'612.9
2017-Dec-26 03:00N 37°25' W 123°16'612.7
2017-Dec-26 02:30N 37°21' W 123°22'612.6
2017-Dec-26 02:01N 37°18' W 123°29'713.0
2017-Dec-26 01:30N 37°14' W 123°36'612.6
2017-Dec-26 01:00N 37°11' W 123°42'2 4.2
2017-Dec-26 00:30N 37°10' W 123°45'5 9.9
2017-Dec-26 00:01N 37°07' W 123°50'712.9
2017-Dec-25 23:30N 37°04' W 123°57'713.2
2017-Dec-25 23:00N 37°01' W 124°04'613.0
2017-Dec-25 22:30N 36°58' W 124°11'1013.0
2017-Dec-25 21:45N 36°53' W 124°22'513.1
2017-Dec-25 21:25N 36°51' W 124°27'513.1
2017-Dec-25 21:00N 36°48' W 124°32'713.2
2017-Dec-25 20:30N 36°45' W 124°40'613.1
2017-Dec-25 20:01N 36°41' W 124°47'162 9.4
2017-Dec-25 02:47N 34°18' W 126°21'0 0.8
2017-Dec-25 02:29N 34°19' W 126°22'0 0.8
2017-Dec-25 01:58N 34°19' W 126°22'0 0.9
2017-Dec-25 01:30N 34°19' W 126°22'1 0.9
2017-Dec-25 00:20N 34°20' W 126°23'0 0.9
2017-Dec-25 00:00N 34°20' W 126°24'1 0.8
2017-Dec-24 22:36N 34°20' W 126°25'0 0.5
2017-Dec-24 22:31N 34°20' W 126°25'0 0.8
2017-Dec-24 22:00N 34°20' W 126°25'2 0.9
2017-Dec-24 20:12N 34°21' W 126°27'1 0.9
2017-Dec-24 19:33N 34°21' W 126°28'1 0.8
2017-Dec-24 17:46N 34°21' W 126°30'1 0.7
2017-Dec-24 16:26N 34°22' W 126°31'0 0.8
2017-Dec-24 16:01N 34°22' W 126°31'0 0.6
2017-Dec-24 15:30N 34°22' W 126°31'0 0.7
2017-Dec-24 15:00N 34°22' W 126°32'0 0.9
2017-Dec-24 14:30N 34°22' W 126°32'0 0.7
2017-Dec-24 14:00N 34°22' W 126°33'0 0.6
2017-Dec-24 13:31N 34°22' W 126°33'0 0.7
2017-Dec-24 12:54N 34°22' W 126°33'0 0.6
2017-Dec-24 12:28N 34°22' W 126°34'0 0.4
2017-Dec-24 12:00N 34°22' W 126°34'0 0.4
2017-Dec-24 11:23N 34°22' W 126°34'1 0.5
2017-Dec-24 09:51N 34°22' W 126°35'0 0.4
2017-Dec-24 08:59N 34°22' W 126°36'0 0.4
2017-Dec-24 08:26N 34°22' W 126°36'0 0.5
2017-Dec-24 08:00N 34°23' W 126°36'0 0.6
2017-Dec-24 07:18N 34°23' W 126°36'0 0.7
2017-Dec-24 06:56N 34°23' W 126°37'0 0.3
2017-Dec-24 06:28N 34°23' W 126°37'0 0.3
2017-Dec-24 06:00N 34°23' W 126°37'0 0.2
2017-Dec-24 05:26N 34°23' W 126°37'0 0.2
2017-Dec-24 05:00N 34°23' W 126°37'0 0.2
2017-Dec-24 04:25N 34°23' W 126°37'0 0.2
2017-Dec-24 02:59N 34°24' W 126°37'1 0.4
2017-Dec-24 01:09N 34°24' W 126°37'2 1.1
2017-Dec-23 23:21N 34°26' W 126°39'0 0.3
2017-Dec-23 22:18N 34°26' W 126°39'0 0.5
2017-Dec-23 21:57N 34°26' W 126°39'0 0.6
2017-Dec-23 21:20N 34°26' W 126°39'0 0.6
2017-Dec-23 20:57N 34°26' W 126°40'0 0.9
2017-Dec-23 20:31N 34°27' W 126°40'1 2.2
2017-Dec-23 19:57N 34°28' W 126°39'1 1.5
2017-Dec-23 19:31N 34°28' W 126°39'2 1.1
2017-Dec-23 18:01N 34°28' W 126°37'1 1.2
2017-Dec-23 17:09N 34°29' W 126°36'0 1.0
2017-Dec-23 16:56N 34°29' W 126°36'1 1.0
2017-Dec-23 16:12N 34°30' W 126°37'0 1.0
2017-Dec-23 15:43N 34°30' W 126°37'1 1.0
2017-Dec-23 14:11N 34°31' W 126°38'2 0.8
2017-Dec-23 11:28N 34°33' W 126°40'1 0.8
2017-Dec-23 10:46N 34°33' W 126°41'0 0.7
2017-Dec-23 10:29N 34°33' W 126°41'1 0.8
2017-Dec-23 09:35N 34°34' W 126°42'0 0.9
2017-Dec-23 09:28N 34°34' W 126°42'0 0.6
2017-Dec-23 08:42N 34°34' W 126°42'3 0.8
2017-Dec-23 04:49N 34°36' W 126°45'1 0.9
2017-Dec-23 03:50N 34°36' W 126°46'1 0.9
2017-Dec-23 03:13N 34°37' W 126°46'0 1.0
2017-Dec-23 02:51N 34°37' W 126°47'0 1.0
2017-Dec-23 02:31N 34°37' W 126°47'1 0.9
2017-Dec-23 01:39N 34°38' W 126°48'  
Track history (hours):
 
Tides and Currents Weather Stations Pressure Air Temp Water Temp Dewpoint Dewpoint Depression Visibility Wind Speed Wind Dir Waves Ship Positions

Sti Memphis

Last reported at 2017-Dec-31 20:09 UTC. Time now 2018-Jan-20 19:25 UTC.
Position N 37°31' W 125°15'.
Warning: this ship's position is 19 days out of date.

Length 183 m; draft 11 m.

Type: Tanker. MMSI: 538006010.

Date/timePositionNaut miles runAvg speedWind from/ knotsBaromVisibWave heightAir tempDewpointWater temp
2017-Dec-31 20:09N 37°31' W 125°15'212.7
2017-Dec-31 20:00N 37°31' W 125°13'2012.8
2017-Dec-31 18:25N 37°31' W 124°47'512.8
2017-Dec-31 18:00N 37°32' W 124°40'612.7
2017-Dec-31 17:30N 37°32' W 124°32'612.7
2017-Dec-31 17:00N 37°32' W 124°24'612.6
2017-Dec-31 16:30N 37°32' W 124°16'612.6
2017-Dec-31 16:00N 37°33' W 124°09'612.9
2017-Dec-31 15:30N 37°33' W 124°00'612.5
2017-Dec-31 15:00N 37°33' W 123°53'612.7
2017-Dec-31 14:30N 37°33' W 123°45'713.1
2017-Dec-31 13:58N 37°33' W 123°36'713.3
2017-Dec-31 13:27N 37°33' W 123°27'613.0
2017-Dec-31 13:00N 37°34' W 123°20'713.1
2017-Dec-31 12:30N 37°34' W 123°11'612.5
2017-Dec-31 12:00N 37°34' W 123°04'612.5
2017-Dec-31 11:30N 37°38' W 122°57'612.6
2017-Dec-31 11:00N 37°41' W 122°50'612.4
2017-Dec-31 10:30N 37°45' W 122°44'5 9.6
2017-Dec-31 10:00N 37°46' W 122°38'611.7
2017-Dec-31 09:30N 37°48' W 122°31'510.6
2017-Dec-31 09:00N 37°51' W 122°25'4 7.5
2017-Dec-31 08:30N 37°54' W 122°27'4 7.3
2017-Dec-31 08:00N 37°58' W 122°27'4 8.6
2017-Dec-31 07:30N 38°01' W 122°23'4 7.3
2017-Dec-31 07:00N 38°03' W 122°19'3 6.3
2017-Dec-31 06:30N 38°04' W 122°15'3 6.3
2017-Dec-31 06:00N 38°03' W 122°11'  
2017-Dec-27 05:34N 38°02' W 122°08'0 0.8
2017-Dec-27 05:30N 38°02' W 122°08'2 4.0
2017-Dec-27 04:59N 38°03' W 122°10'510.2
2017-Dec-27 04:30N 38°04' W 122°17'612.0
2017-Dec-27 03:59N 38°01' W 122°24'611.3
2017-Dec-27 03:30N 37°56' W 122°27'510.6
2017-Dec-27 03:00N 37°51' W 122°24'510.7
2017-Dec-27 02:30N 37°46' W 122°21'4 8.0
2017-Dec-27 02:01N 37°43' W 122°20'0 0.2
2017-Dec-27 01:30N 37°42' W 122°20'0 0.0
2017-Dec-27 01:00N 37°42' W 122°20'0 0.0
2017-Dec-27 00:30N 37°42' W 122°20'0 0.0
2017-Dec-27 00:00N 37°42' W 122°20'0 0.0
2017-Dec-26 23:30N 37°42' W 122°20'0 0.0
2017-Dec-26 23:00N 37°42' W 122°20'0 0.0
2017-Dec-26 22:30N 37°42' W 122°20'0 0.0
2017-Dec-26 22:00N 37°42' W 122°20'0 0.1
2017-Dec-26 21:30N 37°42' W 122°20'0 0.1
2017-Dec-26 21:00N 37°42' W 122°20'0 0.2
2017-Dec-26 20:30N 37°43' W 122°20'0 0.1
2017-Dec-26 20:00N 37°43' W 122°20'0 0.0
2017-Dec-26 19:30N 37°43' W 122°20'0 0.0
2017-Dec-26 19:00N 37°43' W 122°20'0 0.0
2017-Dec-26 18:30N 37°43' W 122°20'0 0.0
2017-Dec-26 18:00N 37°43' W 122°20'0 0.0
2017-Dec-26 17:30N 37°43' W 122°20'0 0.0
2017-Dec-26 17:00N 37°43' W 122°20'0 0.0
2017-Dec-26 16:30N 37°43' W 122°20'0 0.0
2017-Dec-26 16:00N 37°43' W 122°20'0 0.2
2017-Dec-26 15:30N 37°43' W 122°20'0 0.2
2017-Dec-26 14:57N 37°42' W 122°20'0 0.0
2017-Dec-26 14:30N 37°42' W 122°20'0 0.0
2017-Dec-26 14:00N 37°42' W 122°20'0 0.0
2017-Dec-26 13:30N 37°42' W 122°20'0 0.0
2017-Dec-26 13:00N 37°42' W 122°20'0 0.1
2017-Dec-26 12:30N 37°42' W 122°20'0 0.1
2017-Dec-26 12:00N 37°42' W 122°20'0 0.0
2017-Dec-26 11:30N 37°42' W 122°20'0 0.0
2017-Dec-26 11:00N 37°42' W 122°20'0 0.0
2017-Dec-26 10:30N 37°42' W 122°20'0 0.0
2017-Dec-26 10:00N 37°42' W 122°20'0 0.0
2017-Dec-26 09:30N 37°42' W 122°20'0 0.0
2017-Dec-26 09:00N 37°42' W 122°20'0 0.1
2017-Dec-26 08:30N 37°42' W 122°20'1 2.4
2017-Dec-26 08:01N 37°43' W 122°21'4 8.0
2017-Dec-26 07:31N 37°47' W 122°22'5 9.7
2017-Dec-26 07:01N 37°49' W 122°28'510.5
2017-Dec-26 06:30N 37°47' W 122°34'611.1
2017-Dec-26 06:00N 37°45' W 122°41'4 8.8
2017-Dec-26 05:31N 37°42' W 122°45'510.2
2017-Dec-26 05:00N 37°39' W 122°50'611.3
2017-Dec-26 04:30N 37°36' W 122°56'612.3
2017-Dec-26 04:00N 37°32' W 123°02'612.7
2017-Dec-26 03:30N 37°28' W 123°09'612.9
2017-Dec-26 03:00N 37°25' W 123°16'612.7
2017-Dec-26 02:30N 37°21' W 123°22'612.6
2017-Dec-26 02:01N 37°18' W 123°29'713.0
2017-Dec-26 01:30N 37°14' W 123°36'612.6
2017-Dec-26 01:00N 37°11' W 123°42'2 4.2
2017-Dec-26 00:30N 37°10' W 123°45'5 9.9
2017-Dec-26 00:01N 37°07' W 123°50'712.9
2017-Dec-25 23:30N 37°04' W 123°57'713.2
2017-Dec-25 23:00N 37°01' W 124°04'613.0
2017-Dec-25 22:30N 36°58' W 124°11'1013.0
2017-Dec-25 21:45N 36°53' W 124°22'513.1
2017-Dec-25 21:25N 36°51' W 124°27'513.1
2017-Dec-25 21:00N 36°48' W 124°32'713.2
2017-Dec-25 20:30N 36°45' W 124°40'613.1
2017-Dec-25 20:01N 36°41' W 124°47'162 9.4
2017-Dec-25 02:47N 34°18' W 126°21'0 0.8
2017-Dec-25 02:29N 34°19' W 126°22'0 0.8
2017-Dec-25 01:58N 34°19' W 126°22'0 0.9
2017-Dec-25 01:30N 34°19' W 126°22'1 0.9
2017-Dec-25 00:20N 34°20' W 126°23'0 0.9
2017-Dec-25 00:00N 34°20' W 126°24'1 0.8
2017-Dec-24 22:36N 34°20' W 126°25'0 0.5
2017-Dec-24 22:31N 34°20' W 126°25'0 0.8
2017-Dec-24 22:00N 34°20' W 126°25'2 0.9
2017-Dec-24 20:12N 34°21' W 126°27'1 0.9
2017-Dec-24 19:33N 34°21' W 126°28'1 0.8
2017-Dec-24 17:46N 34°21' W 126°30'1 0.7
2017-Dec-24 16:26N 34°22' W 126°31'0 0.8
2017-Dec-24 16:01N 34°22' W 126°31'0 0.6
2017-Dec-24 15:30N 34°22' W 126°31'0 0.7
2017-Dec-24 15:00N 34°22' W 126°32'0 0.9
2017-Dec-24 14:30N 34°22' W 126°32'0 0.7
2017-Dec-24 14:00N 34°22' W 126°33'0 0.6
2017-Dec-24 13:31N 34°22' W 126°33'0 0.7
2017-Dec-24 12:54N 34°22' W 126°33'0 0.6
2017-Dec-24 12:28N 34°22' W 126°34'0 0.4
2017-Dec-24 12:00N 34°22' W 126°34'0 0.4
2017-Dec-24 11:23N 34°22' W 126°34'1 0.5
2017-Dec-24 09:51N 34°22' W 126°35'0 0.4
2017-Dec-24 08:59N 34°22' W 126°36'0 0.4
2017-Dec-24 08:26N 34°22' W 126°36'0 0.5
2017-Dec-24 08:00N 34°23' W 126°36'0 0.6
2017-Dec-24 07:18N 34°23' W 126°36'0 0.7
2017-Dec-24 06:56N 34°23' W 126°37'0 0.3
2017-Dec-24 06:28N 34°23' W 126°37'0 0.3
2017-Dec-24 06:00N 34°23' W 126°37'0 0.2
2017-Dec-24 05:26N 34°23' W 126°37'0 0.2
2017-Dec-24 05:00N 34°23' W 126°37'0 0.2
2017-Dec-24 04:25N 34°23' W 126°37'0 0.2
2017-Dec-24 02:59N 34°24' W 126°37'1 0.4
2017-Dec-24 01:09N 34°24' W 126°37'2 1.1
2017-Dec-23 23:21N 34°26' W 126°39'0 0.3
2017-Dec-23 22:18N 34°26' W 126°39'0 0.5
2017-Dec-23 21:57N 34°26' W 126°39'0 0.6
2017-Dec-23 21:20N 34°26' W 126°39'0 0.6
2017-Dec-23 20:57N 34°26' W 126°40'0 0.9
2017-Dec-23 20:31N 34°27' W 126°40'1 2.2
2017-Dec-23 19:57N 34°28' W 126°39'1 1.5
2017-Dec-23 19:31N 34°28' W 126°39'2 1.1
2017-Dec-23 18:01N 34°28' W 126°37'1 1.2
2017-Dec-23 17:09N 34°29' W 126°36'0 1.0
2017-Dec-23 16:56N 34°29' W 126°36'1 1.0
2017-Dec-23 16:12N 34°30' W 126°37'0 1.0
2017-Dec-23 15:43N 34°30' W 126°37'1 1.0
2017-Dec-23 14:11N 34°31' W 126°38'2 0.8
2017-Dec-23 11:28N 34°33' W 126°40'1 0.8
2017-Dec-23 10:46N 34°33' W 126°41'0 0.7
2017-Dec-23 10:29N 34°33' W 126°41'1 0.8
2017-Dec-23 09:35N 34°34' W 126°42'0 0.9
2017-Dec-23 09:28N 34°34' W 126°42'0 0.6
2017-Dec-23 08:42N 34°34' W 126°42'3 0.8
2017-Dec-23 04:49N 34°36' W 126°45'1 0.9
2017-Dec-23 03:50N 34°36' W 126°46'1 0.9
2017-Dec-23 03:13N 34°37' W 126°46'0 1.0
2017-Dec-23 02:51N 34°37' W 126°47'0 1.0
2017-Dec-23 02:31N 34°37' W 126°47'1 0.9
2017-Dec-23 01:39N 34°38' W 126°48'  

Dump ship's entire track history